createdAt,value
2022-08-14T00:00:14.051Z,21.50
2022-08-14T00:02:17.201Z,21.50
2022-08-14T00:04:34.470Z,21.50
2022-08-14T00:06:38.676Z,21.50
2022-08-14T00:08:44.631Z,21.50
2022-08-14T00:10:52.101Z,21.50
2022-08-14T00:12:57.232Z,21.50
2022-08-14T00:15:00.096Z,21.50
2022-08-14T00:17:03.037Z,21.50
2022-08-14T00:19:19.746Z,21.50
2022-08-14T00:21:28.194Z,21.50
2022-08-14T00:23:33.646Z,21.40
2022-08-14T00:25:42.546Z,21.40
2022-08-14T00:27:45.699Z,21.30
2022-08-14T00:29:51.842Z,21.30
2022-08-14T00:31:56.241Z,21.30
2022-08-14T00:34:35.283Z,21.30
2022-08-14T00:36:37.228Z,21.20
2022-08-14T00:38:46.573Z,21.20
2022-08-14T00:40:50.579Z,21.20
2022-08-14T00:42:55.967Z,21.20
2022-08-14T00:44:58.999Z,21.20
2022-08-14T00:47:03.711Z,21.20
2022-08-14T00:49:11.643Z,21.20
2022-08-14T00:51:18.441Z,21.20
2022-08-14T00:53:23.516Z,21.10
2022-08-14T00:55:30.123Z,21.10
2022-08-14T00:57:35.581Z,21.10
2022-08-14T00:59:38.314Z,21.00
2022-08-14T01:01:42.957Z,20.90
2022-08-14T01:03:46.031Z,20.90
2022-08-14T01:05:56.917Z,20.90
2022-08-14T01:08:01.859Z,20.80
2022-08-14T01:10:06.401Z,20.80
2022-08-14T01:12:10.919Z,20.70
2022-08-14T01:14:25.670Z,20.70
2022-08-14T01:16:31.567Z,20.70
2022-08-14T01:18:53.356Z,20.60
2022-08-14T01:21:08.193Z,20.60
2022-08-14T01:23:16.156Z,20.60
2022-08-14T01:25:21.779Z,20.50
2022-08-14T01:27:25.149Z,20.50
2022-08-14T01:29:58.191Z,20.50
2022-08-14T01:31:53.147Z,20.40
2022-08-14T01:35:16.637Z,20.40
2022-08-14T01:36:23.223Z,20.30
2022-08-14T01:38:31.923Z,20.30
2022-08-14T01:40:40.622Z,20.30
2022-08-14T01:42:45.041Z,20.30
2022-08-14T01:44:54.310Z,20.30
2022-08-14T01:47:00.999Z,20.40
2022-08-14T01:49:10.201Z,20.30
2022-08-14T01:51:18.782Z,20.30
2022-08-14T01:53:22.648Z,20.30
2022-08-14T01:55:32.564Z,20.30
2022-08-14T01:58:01.331Z,20.30
2022-08-14T02:00:00.489Z,20.30
2022-08-14T02:02:19.876Z,20.30
2022-08-14T02:04:55.962Z,20.30
2022-08-14T02:06:51.766Z,20.30
2022-08-14T02:08:57.223Z,20.30
2022-08-14T02:11:18.883Z,20.20
2022-08-14T02:13:22.894Z,20.20
2022-08-14T02:15:26.544Z,20.10
2022-08-14T02:17:30.825Z,20.10
2022-08-14T02:19:35.787Z,20.10
2022-08-14T02:21:46.878Z,20.10
2022-08-14T02:23:54.335Z,20.00
2022-08-14T02:25:59.733Z,20.00
2022-08-14T02:28:57.438Z,20.10
2022-08-14T02:30:46.499Z,20.10
2022-08-14T02:32:50.432Z,20.10
2022-08-14T02:34:53.153Z,20.10
2022-08-14T02:37:06.939Z,20.10
2022-08-14T02:39:11.079Z,20.10
2022-08-14T02:41:14.241Z,20.10
2022-08-14T02:43:17.695Z,20.00
2022-08-14T02:45:44.214Z,20.00
2022-08-14T02:47:47.468Z,19.90
2022-08-14T02:49:54.583Z,19.90
2022-08-14T02:52:00.035Z,19.80
2022-08-14T02:54:03.713Z,19.80
2022-08-14T02:56:29.667Z,19.80
2022-08-14T02:58:42.349Z,19.80
2022-08-14T03:00:45.128Z,19.80
2022-08-14T03:02:56.027Z,19.90
2022-08-14T03:05:01.872Z,19.80
2022-08-14T03:07:07.512Z,19.80
2022-08-14T03:09:14.788Z,19.70
2022-08-14T03:11:18.918Z,19.70
2022-08-14T03:13:22.390Z,19.60
2022-08-14T03:15:25.367Z,19.60
2022-08-14T03:17:31.844Z,19.50
2022-08-14T03:19:44.162Z,19.50
2022-08-14T03:21:47.003Z,19.50
2022-08-14T03:24:21.444Z,19.50
2022-08-14T03:26:30.172Z,19.50
2022-08-14T03:28:33.721Z,19.50
2022-08-14T03:30:40.915Z,19.50
2022-08-14T03:32:44.673Z,19.50
2022-08-14T03:34:55.734Z,19.50
2022-08-14T03:37:51.035Z,19.40
2022-08-14T03:39:24.319Z,19.40
2022-08-14T03:41:33.129Z,19.40
2022-08-14T03:43:35.850Z,19.40
2022-08-14T03:45:47.876Z,19.30
2022-08-14T03:47:58.284Z,19.30
2022-08-14T03:50:04.486Z,19.30
2022-08-14T03:52:37.711Z,19.20
2022-08-14T03:54:35.824Z,19.20
2022-08-14T03:56:40.615Z,19.20
2022-08-14T03:58:51.444Z,19.20
2022-08-14T04:00:54.074Z,19.20
2022-08-14T04:02:56.623Z,19.20
2022-08-14T04:05:11.673Z,19.20
2022-08-14T04:07:15.194Z,19.30
2022-08-14T04:09:18.271Z,19.30
2022-08-14T04:11:22.582Z,19.30
2022-08-14T04:13:27.943Z,19.30
2022-08-14T04:15:56.672Z,19.20
2022-08-14T04:17:56.905Z,19.20
2022-08-14T04:20:04.419Z,19.10
2022-08-14T04:22:07.045Z,19.10
2022-08-14T04:24:10.310Z,19.10
2022-08-14T04:26:27.445Z,19.00
2022-08-14T04:29:05.439Z,19.10
2022-08-14T04:31:08.546Z,19.00
2022-08-14T04:33:20.816Z,19.00
2022-08-14T04:35:24.179Z,19.00
2022-08-14T04:37:58.606Z,19.00
2022-08-14T04:40:20.037Z,19.00
2022-08-14T04:42:46.794Z,19.10
2022-08-14T04:45:00.426Z,19.10
2022-08-14T04:47:23.677Z,19.20
2022-08-14T04:49:26.559Z,19.20
2022-08-14T04:51:30.082Z,19.20
2022-08-14T04:53:43.778Z,19.30
2022-08-14T04:55:49.826Z,19.30
2022-08-14T04:57:54.124Z,19.40
2022-08-14T04:59:56.954Z,19.40
2022-08-14T05:02:00.245Z,19.40
2022-08-14T05:04:03.009Z,19.50
2022-08-14T05:06:35.003Z,19.50
2022-08-14T05:08:50.601Z,19.60
2022-08-14T05:10:58.739Z,19.60
2022-08-14T05:13:12.656Z,19.70
2022-08-14T05:15:32.093Z,19.70
2022-08-14T05:17:44.063Z,19.70
2022-08-14T05:21:54.402Z,19.80
2022-08-14T05:22:20.271Z,19.80
2022-08-14T05:24:22.825Z,19.90
2022-08-14T05:26:25.327Z,20.00
2022-08-14T05:28:30.950Z,20.00
2022-08-14T05:30:35.761Z,20.10
2022-08-14T05:32:38.893Z,20.10
2022-08-14T05:34:41.853Z,20.20
2022-08-14T05:36:50.698Z,20.20
2022-08-14T05:39:06.370Z,20.30
2022-08-14T05:41:18.652Z,20.30
2022-08-14T05:43:21.491Z,20.40
2022-08-14T05:45:25.708Z,20.40
2022-08-14T05:47:39.178Z,20.50
2022-08-14T05:49:42.235Z,20.60
2022-08-14T05:51:46.966Z,20.70
2022-08-14T05:54:00.361Z,20.70
2022-08-14T05:56:12.902Z,20.90
2022-08-14T05:58:15.902Z,20.90
2022-08-14T06:00:28.302Z,21.00
2022-08-14T06:02:33.450Z,21.10
2022-08-14T06:04:36.184Z,21.20
2022-08-14T06:06:38.982Z,21.30
2022-08-14T06:08:42.154Z,21.30
2022-08-14T06:10:45.314Z,21.40
2022-08-14T06:12:55.922Z,21.60
2022-08-14T06:15:00.198Z,21.70
2022-08-14T06:17:02.761Z,21.80
2022-08-14T06:19:06.633Z,21.90
2022-08-14T06:21:15.924Z,22.00
2022-08-14T06:23:20.398Z,22.20
2022-08-14T06:25:26.090Z,22.30
2022-08-14T06:27:33.885Z,22.30
2022-08-14T06:29:37.429Z,22.40
2022-08-14T06:31:40.287Z,22.60
2022-08-14T06:35:02.313Z,22.60
2022-08-14T06:36:06.437Z,22.70
2022-08-14T06:38:09.123Z,22.80
2022-08-14T06:40:27.345Z,22.80
2022-08-14T06:42:42.473Z,22.90
2022-08-14T06:44:45.297Z,23.00
2022-08-14T06:46:49.272Z,23.20
2022-08-14T06:48:52.038Z,23.20
2022-08-14T06:50:58.405Z,23.40
2022-08-14T06:53:01.203Z,23.50
2022-08-14T06:55:06.151Z,23.60
2022-08-14T06:57:10.764Z,23.70
2022-08-14T06:59:19.668Z,23.80
2022-08-14T07:01:41.678Z,23.90
2022-08-14T07:04:02.960Z,23.90
2022-08-14T07:06:11.767Z,24.10
2022-08-14T07:08:29.669Z,24.20
2022-08-14T07:10:34.202Z,24.30
2022-08-14T07:13:01.444Z,24.50
2022-08-14T07:15:01.539Z,24.60
2022-08-14T07:17:04.367Z,24.70
2022-08-14T07:19:09.002Z,24.80
2022-08-14T07:21:11.793Z,24.90
2022-08-14T07:23:20.732Z,25.00
2022-08-14T07:25:32.152Z,25.20
2022-08-14T07:27:36.069Z,25.30
2022-08-14T07:29:38.944Z,25.50
2022-08-14T07:31:43.112Z,25.60
2022-08-14T07:33:50.759Z,25.60
2022-08-14T07:35:58.180Z,25.70
2022-08-14T07:38:19.920Z,25.90
2022-08-14T07:40:27.426Z,26.00
2022-08-14T07:42:33.086Z,26.00
2022-08-14T07:44:45.996Z,26.10
2022-08-14T07:46:52.685Z,26.20
2022-08-14T07:48:57.030Z,26.20
2022-08-14T07:51:03.123Z,26.30
2022-08-14T07:53:16.791Z,26.40
2022-08-14T07:55:21.202Z,26.40
2022-08-14T07:57:25.040Z,26.50
2022-08-14T07:59:42.269Z,26.60
2022-08-14T08:01:51.051Z,26.70
2022-08-14T08:04:00.083Z,26.70
2022-08-14T08:06:03.274Z,26.70
2022-08-14T08:08:27.225Z,26.80
2022-08-14T08:11:01.492Z,26.90
2022-08-14T08:13:02.886Z,27.00
2022-08-14T08:15:08.066Z,27.10
2022-08-14T08:17:12.379Z,27.20
2022-08-14T08:19:18.963Z,27.30
2022-08-14T08:21:22.531Z,27.40
2022-08-14T08:23:40.122Z,27.60
2022-08-14T08:25:46.185Z,27.70
2022-08-14T08:27:56.641Z,27.70
2022-08-14T08:30:10.158Z,27.80
2022-08-14T08:32:14.152Z,27.70
2022-08-14T08:34:23.790Z,27.80
2022-08-14T08:36:29.838Z,27.80
2022-08-14T08:39:17.928Z,27.80
2022-08-14T08:41:00.156Z,27.90
2022-08-14T08:43:06.712Z,28.10
2022-08-14T08:45:17.515Z,28.10
2022-08-14T08:47:20.118Z,28.20
2022-08-14T08:49:22.778Z,28.20
2022-08-14T08:51:38.678Z,28.30
2022-08-14T08:53:46.261Z,28.50
2022-08-14T08:55:51.551Z,28.50
2022-08-14T08:58:02.130Z,28.50
2022-08-14T09:00:24.480Z,28.60
2022-08-14T09:02:28.767Z,28.60
2022-08-14T09:04:36.686Z,28.80
2022-08-14T09:07:00.357Z,29.00
2022-08-14T09:09:33.098Z,29.20
2022-08-14T09:11:36.500Z,29.20
2022-08-14T09:13:39.127Z,29.20
2022-08-14T09:15:46.660Z,29.20
2022-08-14T09:17:52.671Z,29.30
2022-08-14T09:19:57.781Z,29.50
2022-08-14T09:22:32.948Z,29.70
2022-08-14T09:24:36.298Z,29.90
2022-08-14T09:26:49.373Z,29.80
2022-08-14T09:28:52.919Z,29.80
2022-08-14T09:30:57.829Z,29.90
2022-08-14T09:33:11.705Z,30.10
2022-08-14T09:35:55.017Z,30.10
2022-08-14T09:38:26.206Z,30.20
2022-08-14T09:40:56.101Z,30.40
2022-08-14T09:43:34.881Z,30.50
2022-08-14T09:45:52.994Z,30.80
2022-08-14T09:47:58.122Z,30.80
2022-08-14T09:50:00.766Z,30.90
2022-08-14T09:52:33.069Z,31.20
2022-08-14T09:54:40.396Z,31.40
2022-08-14T09:56:51.531Z,31.20
2022-08-14T09:59:16.234Z,31.00
2022-08-14T10:01:21.337Z,30.90
2022-08-14T10:03:33.256Z,30.80
2022-08-14T10:05:39.204Z,31.00
2022-08-14T10:07:53.698Z,31.10
2022-08-14T10:10:02.604Z,31.10
2022-08-14T10:12:28.688Z,31.20
2022-08-14T10:14:36.997Z,31.50
2022-08-14T10:16:47.711Z,31.50
2022-08-14T10:19:01.283Z,31.70
2022-08-14T10:21:09.717Z,32.00
2022-08-14T10:23:17.866Z,32.20
2022-08-14T10:25:26.866Z,32.50
2022-08-14T10:27:29.871Z,32.70
2022-08-14T10:29:38.529Z,32.60
2022-08-14T10:31:45.576Z,32.70
2022-08-14T10:34:12.809Z,32.70
2022-08-14T10:36:37.007Z,32.60
2022-08-14T10:38:43.425Z,32.60
2022-08-14T10:40:59.367Z,32.70
2022-08-14T10:43:17.247Z,32.90
2022-08-14T10:45:22.433Z,33.20
2022-08-14T10:47:41.117Z,33.40
2022-08-14T10:50:01.545Z,33.70
2022-08-14T10:52:19.505Z,33.80
2022-08-14T10:54:35.998Z,33.90
2022-08-14T10:56:42.699Z,34.10
2022-08-14T10:58:45.613Z,34.30
2022-08-14T11:01:01.886Z,34.50
2022-08-14T11:03:13.355Z,34.60
2022-08-14T11:05:26.786Z,34.80
2022-08-14T11:07:32.109Z,34.70
2022-08-14T11:09:35.623Z,34.70
2022-08-14T11:11:43.738Z,34.70
2022-08-14T11:13:46.682Z,34.80
2022-08-14T11:15:50.397Z,35.00
2022-08-14T11:17:56.465Z,35.20
2022-08-14T11:20:16.067Z,35.30
2022-08-14T11:22:52.921Z,35.30
2022-08-14T11:24:55.619Z,35.30
2022-08-14T11:27:01.110Z,35.40
2022-08-14T11:29:05.808Z,35.50
2022-08-14T11:31:10.458Z,35.60
2022-08-14T11:33:13.582Z,35.70
2022-08-14T11:35:21.850Z,35.90
2022-08-14T11:37:36.901Z,36.00
2022-08-14T11:39:45.522Z,35.90
2022-08-14T11:41:55.769Z,35.70
2022-08-14T11:43:59.801Z,35.40
2022-08-14T11:46:03.963Z,35.10
2022-08-14T11:49:02.261Z,34.80
2022-08-14T11:50:41.530Z,34.50
2022-08-14T11:52:46.744Z,34.50
2022-08-14T11:55:02.415Z,34.60
2022-08-14T11:57:06.055Z,34.80
2022-08-14T11:59:17.567Z,34.90
2022-08-14T12:01:28.634Z,35.00
2022-08-14T12:03:51.341Z,34.90
2022-08-14T12:06:29.439Z,34.80
2022-08-14T12:08:38.645Z,34.80
2022-08-14T12:10:43.599Z,34.80
2022-08-14T12:12:46.350Z,34.80
2022-08-14T12:14:56.752Z,34.80
2022-08-14T12:17:11.783Z,34.80
2022-08-14T12:19:15.711Z,35.00
2022-08-14T12:21:24.040Z,35.10
2022-08-14T12:23:28.190Z,35.10
2022-08-14T12:25:34.723Z,35.10
2022-08-14T12:27:51.937Z,35.00
2022-08-14T12:30:02.166Z,34.80
2022-08-14T12:32:08.757Z,34.50
2022-08-14T12:34:14.763Z,34.40
2022-08-14T12:36:23.822Z,34.40
2022-08-14T12:38:45.627Z,34.40
2022-08-14T12:40:55.986Z,34.50
2022-08-14T12:43:03.279Z,34.40
2022-08-14T12:45:07.800Z,34.60
2022-08-14T12:47:17.723Z,34.70
2022-08-14T12:49:23.030Z,34.60
2022-08-14T12:51:30.888Z,34.50
2022-08-14T12:53:38.674Z,34.40
2022-08-14T12:56:18.594Z,34.40
2022-08-14T12:58:35.369Z,34.30
2022-08-14T13:00:29.847Z,34.30
2022-08-14T13:02:38.305Z,34.30
2022-08-14T13:04:43.109Z,34.40
2022-08-14T13:06:50.804Z,34.50
2022-08-14T13:09:00.306Z,34.70
2022-08-14T13:11:06.389Z,34.80
2022-08-14T13:13:15.027Z,34.90
2022-08-14T13:15:19.457Z,35.10
2022-08-14T13:17:23.132Z,35.20
2022-08-14T13:19:28.404Z,35.40
2022-08-14T13:21:31.776Z,35.40
2022-08-14T13:23:55.825Z,35.30
2022-08-14T13:26:01.113Z,35.20
2022-08-14T13:28:11.201Z,35.10
2022-08-14T13:30:24.154Z,35.00
2022-08-14T13:32:28.800Z,34.90
2022-08-14T13:34:32.024Z,34.80
2022-08-14T13:36:54.283Z,34.80
2022-08-14T13:39:00.769Z,34.70
2022-08-14T13:41:03.981Z,34.60
2022-08-14T13:43:08.907Z,34.40
2022-08-14T13:45:12.914Z,34.30
2022-08-14T13:47:16.048Z,34.20
2022-08-14T13:49:19.413Z,34.10
2022-08-14T13:51:26.093Z,34.20
2022-08-14T13:53:37.882Z,34.20
2022-08-14T13:55:44.266Z,34.30
2022-08-14T13:58:04.606Z,34.30
2022-08-14T14:00:13.883Z,34.30
2022-08-14T14:02:31.763Z,34.30
2022-08-14T14:04:46.375Z,34.40
2022-08-14T14:06:52.219Z,34.40
2022-08-14T14:08:59.102Z,34.40
2022-08-14T14:11:01.960Z,34.30
2022-08-14T14:13:05.018Z,34.30
2022-08-14T14:15:11.198Z,34.30
2022-08-14T14:17:14.221Z,34.40
2022-08-14T14:19:20.040Z,34.40
2022-08-14T14:21:26.495Z,34.40
2022-08-14T14:23:32.575Z,34.40
2022-08-14T14:25:46.403Z,34.40
2022-08-14T14:27:53.458Z,34.40
2022-08-14T14:29:59.269Z,34.40
2022-08-14T14:32:03.098Z,34.40
2022-08-14T14:34:07.549Z,34.40
2022-08-14T14:36:26.577Z,34.50
2022-08-14T14:38:33.917Z,34.50
2022-08-14T14:40:53.584Z,34.60
2022-08-14T14:43:03.755Z,34.70
2022-08-14T14:45:15.855Z,34.70
2022-08-14T14:47:22.783Z,34.70
2022-08-14T14:49:41.674Z,34.60
2022-08-14T14:51:51.164Z,34.60
2022-08-14T14:53:57.767Z,34.50
2022-08-14T14:56:51.210Z,34.50
2022-08-14T14:58:25.919Z,34.70
2022-08-14T15:00:31.104Z,34.90
2022-08-14T15:02:41.386Z,34.90
2022-08-14T15:04:46.226Z,35.00
2022-08-14T15:06:50.126Z,35.00
2022-08-14T15:08:59.774Z,35.10
2022-08-14T15:11:02.951Z,35.20
2022-08-14T15:13:07.247Z,35.10
2022-08-14T15:15:12.240Z,35.10
2022-08-14T15:17:14.961Z,35.10
2022-08-14T15:19:18.504Z,35.20
2022-08-14T15:21:21.375Z,35.30
2022-08-14T15:23:44.440Z,35.20
2022-08-14T15:25:53.205Z,35.20
2022-08-14T15:27:55.934Z,35.20
2022-08-14T15:29:59.149Z,35.10
2022-08-14T15:32:01.680Z,35.10
2022-08-14T15:34:45.551Z,35.10
2022-08-14T15:36:35.293Z,35.10
2022-08-14T15:38:42.682Z,35.10
2022-08-14T15:40:51.465Z,35.10
2022-08-14T15:42:58.840Z,35.00
2022-08-14T15:45:01.725Z,35.00
2022-08-14T15:47:09.262Z,34.90
2022-08-14T15:49:12.596Z,34.80
2022-08-14T15:51:16.300Z,34.70
2022-08-14T15:53:20.552Z,34.60
2022-08-14T15:55:23.215Z,34.40
2022-08-14T15:57:25.709Z,34.30
2022-08-14T15:59:49.933Z,34.30
2022-08-14T16:01:57.264Z,34.30
2022-08-14T16:03:59.953Z,34.30
2022-08-14T16:06:05.887Z,34.40
2022-08-14T16:08:28.913Z,34.40
2022-08-14T16:10:32.816Z,34.30
2022-08-14T16:12:45.974Z,34.30
2022-08-14T16:14:50.381Z,34.30
2022-08-14T16:17:00.513Z,34.40
2022-08-14T16:19:07.256Z,34.40
2022-08-14T16:21:12.549Z,34.40
2022-08-14T16:23:21.059Z,34.30
2022-08-14T16:25:35.481Z,34.20
2022-08-14T16:27:41.053Z,34.20
2022-08-14T16:29:44.876Z,34.10
2022-08-14T16:31:49.308Z,34.10
2022-08-14T16:33:58.747Z,34.00
2022-08-14T16:36:04.886Z,33.80
2022-08-14T16:38:45.535Z,33.70
2022-08-14T16:41:11.120Z,33.70
2022-08-14T16:43:15.168Z,33.70
2022-08-14T16:45:23.574Z,33.70
2022-08-14T16:47:32.071Z,33.90
2022-08-14T16:50:02.960Z,34.00
2022-08-14T16:52:06.194Z,34.00
2022-08-14T16:54:35.241Z,34.10
2022-08-14T16:56:47.838Z,34.10
2022-08-14T16:59:09.376Z,34.20
2022-08-14T17:01:25.209Z,34.20
2022-08-14T17:03:30.223Z,34.30
2022-08-14T17:05:46.898Z,34.40
2022-08-14T17:08:32.829Z,34.50
2022-08-14T17:10:47.923Z,34.40
2022-08-14T17:12:51.583Z,34.40
2022-08-14T17:14:57.661Z,34.20
2022-08-14T17:17:00.259Z,34.10
2022-08-14T17:19:09.645Z,33.90
2022-08-14T17:21:19.438Z,33.70
2022-08-14T17:23:29.881Z,33.60
2022-08-14T17:25:37.136Z,33.40
2022-08-14T17:27:40.115Z,33.20
2022-08-14T17:29:56.531Z,33.10
2022-08-14T17:32:21.893Z,32.80
2022-08-14T17:34:26.110Z,32.60
2022-08-14T17:36:33.077Z,32.40
2022-08-14T17:38:41.181Z,32.20
2022-08-14T17:40:43.973Z,32.00
2022-08-14T17:42:51.290Z,31.90
2022-08-14T17:45:01.347Z,31.80
2022-08-14T17:47:06.938Z,31.70
2022-08-14T17:49:18.235Z,31.70
2022-08-14T17:51:23.986Z,31.60
2022-08-14T17:53:34.112Z,31.50
2022-08-14T17:56:01.350Z,31.40
2022-08-14T17:58:01.346Z,31.40
2022-08-14T18:00:24.899Z,31.30
2022-08-14T18:02:31.311Z,31.20
2022-08-14T18:04:35.523Z,31.20
2022-08-14T18:06:58.718Z,31.10
2022-08-14T18:09:04.787Z,31.00
2022-08-14T18:11:15.349Z,31.00
2022-08-14T18:13:18.764Z,30.90
2022-08-14T18:15:44.401Z,30.90
2022-08-14T18:17:54.563Z,30.80
2022-08-14T18:19:57.997Z,30.70
2022-08-14T18:22:05.628Z,30.70
2022-08-14T18:24:29.606Z,30.60
2022-08-14T18:26:36.997Z,30.60
2022-08-14T18:28:51.634Z,30.50
2022-08-14T18:31:20.658Z,30.40
2022-08-14T18:33:23.282Z,30.30
2022-08-14T18:35:45.878Z,30.20
2022-08-14T18:38:26.180Z,30.00
2022-08-14T18:40:50.970Z,29.80
2022-08-14T18:43:02.157Z,29.70
2022-08-14T18:45:12.891Z,29.50
2022-08-14T18:47:18.794Z,29.40
2022-08-14T18:49:21.750Z,29.30
2022-08-14T18:51:45.190Z,29.20
2022-08-14T18:53:58.327Z,29.00
2022-08-14T18:56:09.495Z,28.90
2022-08-14T18:58:26.708Z,28.70
2022-08-14T19:00:33.876Z,28.70
2022-08-14T19:02:42.725Z,28.60
2022-08-14T19:04:45.638Z,28.50
2022-08-14T19:06:56.055Z,28.30
2022-08-14T19:08:59.351Z,28.30
2022-08-14T19:11:05.372Z,28.10
2022-08-14T19:13:12.381Z,28.10
2022-08-14T19:15:25.781Z,28.00
2022-08-14T19:18:14.762Z,27.90
2022-08-14T19:20:08.693Z,27.80
2022-08-14T19:22:29.552Z,27.60
2022-08-14T19:24:35.542Z,27.60
2022-08-14T19:26:54.748Z,27.60
2022-08-14T19:28:58.450Z,27.50
2022-08-14T19:31:24.908Z,27.50
2022-08-14T19:33:45.766Z,27.50
2022-08-14T19:35:59.675Z,27.50
2022-08-14T19:38:02.957Z,27.40
2022-08-14T19:40:15.154Z,27.30
2022-08-14T19:42:30.559Z,27.20
2022-08-14T19:44:33.561Z,27.20
2022-08-14T19:46:39.721Z,27.20
2022-08-14T19:48:58.927Z,27.20
2022-08-14T19:51:02.848Z,27.10
2022-08-14T19:53:16.621Z,27.10
2022-08-14T19:55:20.781Z,27.10
2022-08-14T19:57:37.215Z,27.10
2022-08-14T19:59:57.640Z,27.10
2022-08-14T20:02:00.931Z,27.00
2022-08-14T20:04:45.295Z,27.00
2022-08-14T20:06:43.293Z,27.00
2022-08-14T20:11:07.295Z,26.90
2022-08-14T20:12:00.210Z,26.90
2022-08-14T20:14:00.130Z,26.90
2022-08-14T20:16:20.936Z,26.80
2022-08-14T20:18:49.289Z,26.80
2022-08-14T20:20:53.775Z,26.90
2022-08-14T20:22:56.414Z,26.90
2022-08-14T20:25:16.243Z,26.90
2022-08-14T20:27:24.909Z,26.90
2022-08-14T20:29:37.972Z,26.90
2022-08-14T20:31:43.080Z,26.80
2022-08-14T20:34:18.811Z,26.80
2022-08-14T20:36:29.203Z,26.80
2022-08-14T20:38:33.672Z,26.70
2022-08-14T20:40:57.677Z,26.70
2022-08-14T20:43:19.169Z,26.60
2022-08-14T20:45:29.085Z,26.50
2022-08-14T20:47:48.455Z,26.50
2022-08-14T20:50:17.111Z,26.50
2022-08-14T20:52:29.861Z,26.40
2022-08-14T20:54:36.390Z,26.30
2022-08-14T20:56:53.381Z,26.30
2022-08-14T20:58:56.013Z,26.30
2022-08-14T21:01:11.358Z,26.30
2022-08-14T21:03:28.904Z,26.30
2022-08-14T21:05:33.460Z,26.40
2022-08-14T21:07:38.616Z,26.40
2022-08-14T21:10:06.360Z,26.50
2022-08-14T21:12:34.395Z,26.50
2022-08-14T21:14:37.143Z,26.60
2022-08-14T21:16:58.612Z,26.60
2022-08-14T21:19:02.188Z,26.70
2022-08-14T21:21:08.636Z,26.70
2022-08-14T21:23:14.195Z,26.70
2022-08-14T21:25:17.006Z,26.80
2022-08-14T21:27:23.670Z,26.80
2022-08-14T21:29:26.142Z,26.70
2022-08-14T21:31:30.142Z,26.60
2022-08-14T21:33:34.702Z,26.60
2022-08-14T21:35:44.421Z,26.50
2022-08-14T21:37:49.408Z,26.40
2022-08-14T21:39:56.991Z,26.40
2022-08-14T21:42:01.826Z,26.40
2022-08-14T21:44:17.956Z,26.40
2022-08-14T21:46:24.190Z,26.30
2022-08-14T21:48:31.973Z,26.20
2022-08-14T21:50:56.400Z,26.10
2022-08-14T21:53:00.912Z,26.00
2022-08-14T21:55:10.213Z,25.90
2022-08-14T21:57:17.477Z,25.90
2022-08-14T21:59:29.243Z,25.90
2022-08-14T22:02:00.927Z,25.80
2022-08-14T22:03:58.118Z,25.80
2022-08-14T22:06:04.225Z,25.80
2022-08-14T22:08:07.525Z,25.80
2022-08-14T22:10:22.870Z,25.80
2022-08-14T22:12:58.565Z,25.80
2022-08-14T22:14:49.594Z,25.90
2022-08-14T22:17:01.465Z,25.80
2022-08-14T22:19:17.851Z,25.90
2022-08-14T22:21:22.648Z,25.90
2022-08-14T22:23:27.202Z,25.90
2022-08-14T22:25:33.340Z,25.90
2022-08-14T22:27:56.167Z,25.90
2022-08-14T22:29:59.491Z,25.80
2022-08-14T22:32:07.175Z,25.80
2022-08-14T22:34:15.015Z,25.70
2022-08-14T22:36:42.325Z,25.70
2022-08-14T22:38:49.965Z,25.60
2022-08-14T22:41:25.190Z,25.50
2022-08-14T22:43:16.227Z,25.50
2022-08-14T22:45:20.198Z,25.40
2022-08-14T22:47:26.442Z,25.40
2022-08-14T22:50:29.441Z,25.30
2022-08-14T22:52:49.331Z,25.30
2022-08-14T22:54:52.519Z,25.30
2022-08-14T22:56:57.818Z,25.20
2022-08-14T22:59:03.782Z,25.20
2022-08-14T23:01:17.696Z,25.10
2022-08-14T23:03:25.358Z,25.10
2022-08-14T23:05:40.052Z,25.10
2022-08-14T23:08:57.790Z,25.00
2022-08-14T23:10:33.949Z,25.00
2022-08-14T23:12:45.669Z,25.00
2022-08-14T23:14:48.438Z,25.00
2022-08-14T23:16:57.437Z,24.90
2022-08-14T23:19:00.253Z,25.00
2022-08-14T23:21:03.007Z,24.90
2022-08-14T23:23:13.063Z,24.90
2022-08-14T23:25:44.606Z,24.90
2022-08-14T23:28:03.582Z,24.90
2022-08-14T23:30:31.825Z,24.80
2022-08-14T23:32:37.461Z,24.70
2022-08-14T23:34:41.235Z,24.70
2022-08-14T23:36:55.950Z,24.70
2022-08-14T23:39:00.283Z,24.70
2022-08-14T23:41:11.656Z,24.70
2022-08-14T23:43:16.124Z,24.70
2022-08-14T23:45:19.090Z,24.70
2022-08-14T23:47:59.286Z,24.70
2022-08-14T23:50:07.740Z,24.70
2022-08-14T23:53:06.123Z,24.60
2022-08-14T23:54:50.197Z,24.60
2022-08-14T23:57:02.568Z,24.50
2022-08-14T23:59:10.376Z,24.50
